sensor_id;sensor_type;location;lat;lon;timestamp;pressure;altitude;pressure_sealevel;temperature;humidity
15272;BME280;7737;51.578;7.268;2022-08-19T00:00:33;100759.25;;;18.03;100.00
15272;BME280;7737;51.578;7.268;2022-08-19T00:03:00;100758.66;;;17.89;100.00
15272;BME280;7737;51.578;7.268;2022-08-19T00:05:26;100763.78;;;18.25;100.00
15272;BME280;7737;51.578;7.268;2022-08-19T00:07:53;100763.06;;;18.34;100.00
15272;BME280;7737;51.578;7.268;2022-08-19T00:10:21;100767.72;;;17.99;100.00
15272;BME280;7737;51.578;7.268;2022-08-19T00:12:49;100766.88;;;18.20;100.00
15272;BME280;7737;51.578;7.268;2022-08-19T00:15:18;100772.25;;;18.32;100.00
15272;BME280;7737;51.578;7.268;2022-08-19T00:17:45;100767.69;;;18.43;100.00
15272;BME280;7737;51.578;7.268;2022-08-19T00:20:13;100768.41;;;18.56;100.00
15272;BME280;7737;51.578;7.268;2022-08-19T00:22:42;100763.03;;;18.56;100.00
15272;BME280;7737;51.578;7.268;2022-08-19T00:25:09;100766.97;;;18.52;100.00
15272;BME280;7737;51.578;7.268;2022-08-19T00:27:37;100761.56;;;18.41;100.00
15272;BME280;7737;51.578;7.268;2022-08-19T00:30:05;100768.69;;;18.09;100.00
15272;BME280;7737;51.578;7.268;2022-08-19T00:32:33;100763.69;;;18.04;100.00
15272;BME280;7737;51.578;7.268;2022-08-19T00:35:00;100765.63;;;17.91;100.00
15272;BME280;7737;51.578;7.268;2022-08-19T00:37:27;100760.38;;;18.12;100.00
15272;BME280;7737;51.578;7.268;2022-08-19T00:39:54;100763.19;;;17.99;100.00
15272;BME280;7737;51.578;7.268;2022-08-19T00:42:21;100764.28;;;17.86;100.00
15272;BME280;7737;51.578;7.268;2022-08-19T00:44:50;100763.06;;;17.79;100.00
15272;BME280;7737;51.578;7.268;2022-08-19T00:47:16;100759.78;;;17.97;100.00
15272;BME280;7737;51.578;7.268;2022-08-19T00:49:45;100760.13;;;18.04;100.00
15272;BME280;7737;51.578;7.268;2022-08-19T00:52:20;100762.59;;;18.07;100.00
15272;BME280;7737;51.578;7.268;2022-08-19T00:54:47;100765.75;;;18.12;100.00
15272;BME280;7737;51.578;7.268;2022-08-19T00:57:17;100764.75;;;17.80;100.00
15272;BME280;7737;51.578;7.268;2022-08-19T00:59:48;100764.44;;;17.49;100.00
15272;BME280;7737;51.578;7.268;2022-08-19T01:02:19;100771.75;;;17.47;100.00
15272;BME280;7737;51.578;7.268;2022-08-19T01:04:45;100763.41;;;17.74;100.00
15272;BME280;7737;51.578;7.268;2022-08-19T01:07:12;100760.81;;;17.61;100.00
15272;BME280;7737;51.578;7.268;2022-08-19T01:09:39;100757.13;;;17.51;100.00
15272;BME280;7737;51.578;7.268;2022-08-19T01:12:06;100744.72;;;17.73;100.00
15272;BME280;7737;51.578;7.268;2022-08-19T01:14:34;100745.22;;;17.89;100.00
15272;BME280;7737;51.578;7.268;2022-08-19T01:17:01;100747.91;;;17.78;100.00
15272;BME280;7737;51.578;7.268;2022-08-19T01:19:34;100749.13;;;17.74;100.00
15272;BME280;7737;51.578;7.268;2022-08-19T01:22:06;100753.53;;;17.29;100.00
15272;BME280;7737;51.578;7.268;2022-08-19T01:24:36;100759.22;;;17.24;100.00
15272;BME280;7737;51.578;7.268;2022-08-19T01:27:03;100774.19;;;17.39;100.00
15272;BME280;7737;51.578;7.268;2022-08-19T01:29:30;100773.22;;;17.40;100.00
15272;BME280;7737;51.578;7.268;2022-08-19T01:31:57;100765.97;;;17.30;100.00
15272;BME280;7737;51.578;7.268;2022-08-19T01:34:25;100753.84;;;17.24;100.00
15272;BME280;7737;51.578;7.268;2022-08-19T01:36:51;100767.69;;;17.31;100.00
15272;BME280;7737;51.578;7.268;2022-08-19T01:39:23;100766.56;;;17.57;100.00
15272;BME280;7737;51.578;7.268;2022-08-19T01:41:52;100763.59;;;17.14;100.00
15272;BME280;7737;51.578;7.268;2022-08-19T01:44:20;100766.59;;;16.75;100.00
15272;BME280;7737;51.578;7.268;2022-08-19T01:46:50;100754.69;;;16.90;100.00
15272;BME280;7737;51.578;7.268;2022-08-19T01:49:18;100762.31;;;16.96;100.00
15272;BME280;7737;51.578;7.268;2022-08-19T01:51:46;100763.91;;;17.33;100.00
15272;BME280;7737;51.578;7.268;2022-08-19T01:54:14;100760.50;;;17.31;100.00
15272;BME280;7737;51.578;7.268;2022-08-19T01:56:41;100757.72;;;17.44;100.00
15272;BME280;7737;51.578;7.268;2022-08-19T01:59:12;100751.53;;;17.54;100.00
15272;BME280;7737;51.578;7.268;2022-08-19T02:01:39;100758.03;;;17.28;100.00
15272;BME280;7737;51.578;7.268;2022-08-19T02:04:06;100766.13;;;17.04;100.00
15272;BME280;7737;51.578;7.268;2022-08-19T02:06:33;100761.09;;;17.00;100.00
15272;BME280;7737;51.578;7.268;2022-08-19T02:09:00;100763.03;;;16.98;100.00
15272;BME280;7737;51.578;7.268;2022-08-19T02:11:28;100753.72;;;17.15;100.00
15272;BME280;7737;51.578;7.268;2022-08-19T02:13:57;100746.47;;;17.04;100.00
15272;BME280;7737;51.578;7.268;2022-08-19T02:16:26;100744.44;;;17.19;100.00
15272;BME280;7737;51.578;7.268;2022-08-19T02:18:52;100743.72;;;16.93;100.00
15272;BME280;7737;51.578;7.268;2022-08-19T02:21:22;100740.03;;;16.83;100.00
15272;BME280;7737;51.578;7.268;2022-08-19T02:23:49;100734.72;;;16.70;100.00
15272;BME280;7737;51.578;7.268;2022-08-19T02:26:17;100734.44;;;16.86;100.00
15272;BME280;7737;51.578;7.268;2022-08-19T02:28:44;100739.38;;;17.03;100.00
15272;BME280;7737;51.578;7.268;2022-08-19T02:31:13;100740.22;;;17.03;100.00
15272;BME280;7737;51.578;7.268;2022-08-19T02:33:41;100748.94;;;17.07;100.00
15272;BME280;7737;51.578;7.268;2022-08-19T02:36:08;100758.31;;;17.01;100.00
15272;BME280;7737;51.578;7.268;2022-08-19T02:38:35;100763.38;;;17.17;100.00
15272;BME280;7737;51.578;7.268;2022-08-19T02:41:04;100756.59;;;17.35;100.00
15272;BME280;7737;51.578;7.268;2022-08-19T02:43:33;100761.09;;;17.35;100.00
15272;BME280;7737;51.578;7.268;2022-08-19T02:46:01;100748.06;;;17.41;100.00
15272;BME280;7737;51.578;7.268;2022-08-19T02:48:28;100755.22;;;17.30;100.00
15272;BME280;7737;51.578;7.268;2022-08-19T02:50:56;100751.94;;;17.37;100.00
15272;BME280;7737;51.578;7.268;2022-08-19T02:53:24;100745.84;;;17.00;100.00
15272;BME280;7737;51.578;7.268;2022-08-19T02:55:52;100749.78;;;16.84;100.00
15272;BME280;7737;51.578;7.268;2022-08-19T02:58:19;100745.75;;;17.02;100.00
15272;BME280;7737;51.578;7.268;2022-08-19T03:00:48;100747.25;;;17.17;100.00
15272;BME280;7737;51.578;7.268;2022-08-19T03:03:14;100750.94;;;17.27;100.00
15272;BME280;7737;51.578;7.268;2022-08-19T03:05:41;100753.16;;;17.33;100.00
15272;BME280;7737;51.578;7.268;2022-08-19T03:08:10;100744.09;;;17.34;100.00
15272;BME280;7737;51.578;7.268;2022-08-19T03:10:41;100736.69;;;17.38;100.00
15272;BME280;7737;51.578;7.268;2022-08-19T03:13:11;100740.97;;;17.40;100.00
15272;BME280;7737;51.578;7.268;2022-08-19T03:15:39;100747.19;;;17.41;100.00
15272;BME280;7737;51.578;7.268;2022-08-19T03:18:06;100745.09;;;17.33;100.00
15272;BME280;7737;51.578;7.268;2022-08-19T03:20:32;100752.34;;;17.44;100.00
15272;BME280;7737;51.578;7.268;2022-08-19T03:22:59;100753.94;;;17.46;100.00
15272;BME280;7737;51.578;7.268;2022-08-19T03:25:27;100752.19;;;17.45;100.00
15272;BME280;7737;51.578;7.268;2022-08-19T03:27:53;100753.16;;;17.33;100.00
15272;BME280;7737;51.578;7.268;2022-08-19T03:30:20;100757.59;;;17.45;100.00
15272;BME280;7737;51.578;7.268;2022-08-19T03:32:47;100748.91;;;17.42;100.00
15272;BME280;7737;51.578;7.268;2022-08-19T03:35:13;100746.81;;;17.45;100.00
15272;BME280;7737;51.578;7.268;2022-08-19T03:37:40;100752.44;;;17.42;100.00
15272;BME280;7737;51.578;7.268;2022-08-19T03:40:07;100751.66;;;17.29;100.00
15272;BME280;7737;51.578;7.268;2022-08-19T03:42:35;100748.03;;;17.30;100.00
15272;BME280;7737;51.578;7.268;2022-08-19T03:45:03;100747.56;;;17.36;100.00
15272;BME280;7737;51.578;7.268;2022-08-19T03:47:29;100737.28;;;17.30;100.00
15272;BME280;7737;51.578;7.268;2022-08-19T03:49:56;100748.69;;;17.10;100.00
15272;BME280;7737;51.578;7.268;2022-08-19T03:52:22;100744.94;;;17.24;100.00
15272;BME280;7737;51.578;7.268;2022-08-19T03:54:49;100751.91;;;17.26;100.00
15272;BME280;7737;51.578;7.268;2022-08-19T03:57:16;100753.41;;;17.30;100.00
15272;BME280;7737;51.578;7.268;2022-08-19T03:59:44;100748.88;;;16.96;100.00
15272;BME280;7737;51.578;7.268;2022-08-19T04:02:12;100754.94;;;16.87;100.00
15272;BME280;7737;51.578;7.268;2022-08-19T04:04:41;100750.13;;;17.03;100.00
15272;BME280;7737;51.578;7.268;2022-08-19T04:07:09;100761.78;;;17.15;100.00
15272;BME280;7737;51.578;7.268;2022-08-19T04:09:35;100763.22;;;17.08;100.00
15272;BME280;7737;51.578;7.268;2022-08-19T04:12:03;100756.16;;;17.18;100.00
15272;BME280;7737;51.578;7.268;2022-08-19T04:14:32;100760.91;;;17.14;100.00
15272;BME280;7737;51.578;7.268;2022-08-19T04:17:01;100763.38;;;17.17;100.00
15272;BME280;7737;51.578;7.268;2022-08-19T04:19:30;100763.66;;;17.25;100.00
15272;BME280;7737;51.578;7.268;2022-08-19T04:21:57;100766.78;;;17.19;100.00
15272;BME280;7737;51.578;7.268;2022-08-19T04:24:24;100768.28;;;17.23;100.00
15272;BME280;7737;51.578;7.268;2022-08-19T04:26:51;100766.78;;;17.19;100.00
15272;BME280;7737;51.578;7.268;2022-08-19T04:29:19;100759.94;;;17.15;100.00
15272;BME280;7737;51.578;7.268;2022-08-19T04:31:47;100771.03;;;16.87;100.00
15272;BME280;7737;51.578;7.268;2022-08-19T04:34:18;100763.53;;;17.03;100.00
15272;BME280;7737;51.578;7.268;2022-08-19T04:36:48;100758.00;;;17.17;100.00
15272;BME280;7737;51.578;7.268;2022-08-19T04:39:19;100758.78;;;17.30;100.00
15272;BME280;7737;51.578;7.268;2022-08-19T04:41:46;100768.88;;;16.92;100.00
15272;BME280;7737;51.578;7.268;2022-08-19T04:44:30;100771.16;;;17.09;100.00
15272;BME280;7737;51.578;7.268;2022-08-19T04:46:57;100775.63;;;17.32;100.00
15272;BME280;7737;51.578;7.268;2022-08-19T04:49:25;100774.00;;;17.53;100.00
15272;BME280;7737;51.578;7.268;2022-08-19T04:51:53;100773.63;;;17.58;100.00
15272;BME280;7737;51.578;7.268;2022-08-19T04:54:21;100782.56;;;17.58;100.00
15272;BME280;7737;51.578;7.268;2022-08-19T04:56:48;100774.56;;;17.46;100.00
15272;BME280;7737;51.578;7.268;2022-08-19T04:59:16;100776.06;;;17.15;100.00
15272;BME280;7737;51.578;7.268;2022-08-19T05:01:43;100784.41;;;17.34;100.00
15272;BME280;7737;51.578;7.268;2022-08-19T05:04:15;100790.97;;;17.19;100.00
15272;BME280;7737;51.578;7.268;2022-08-19T05:06:43;100801.81;;;17.41;100.00
15272;BME280;7737;51.578;7.268;2022-08-19T05:09:10;100800.53;;;17.34;100.00
15272;BME280;7737;51.578;7.268;2022-08-19T05:11:37;100798.25;;;17.06;100.00
15272;BME280;7737;51.578;7.268;2022-08-19T05:14:05;100810.00;;;17.16;100.00
15272;BME280;7737;51.578;7.268;2022-08-19T05:16:31;100801.53;;;17.33;100.00
15272;BME280;7737;51.578;7.268;2022-08-19T05:18:58;100799.59;;;17.35;100.00
15272;BME280;7737;51.578;7.268;2022-08-19T05:21:44;100800.50;;;17.47;100.00
15272;BME280;7737;51.578;7.268;2022-08-19T05:24:28;100803.13;;;17.59;100.00
15272;BME280;7737;51.578;7.268;2022-08-19T05:26:56;100796.19;;;17.68;100.00
15272;BME280;7737;51.578;7.268;2022-08-19T05:29:25;100792.66;;;17.79;100.00
15272;BME280;7737;51.578;7.268;2022-08-19T05:31:53;100796.78;;;17.72;100.00
15272;BME280;7737;51.578;7.268;2022-08-19T05:34:22;100790.44;;;17.73;100.00
15272;BME280;7737;51.578;7.268;2022-08-19T05:36:52;100798.88;;;17.90;100.00
15272;BME280;7737;51.578;7.268;2022-08-19T05:39:24;100799.53;;;18.05;100.00
15272;BME280;7737;51.578;7.268;2022-08-19T05:41:55;100796.47;;;18.20;100.00
15272;BME280;7737;51.578;7.268;2022-08-19T05:44:23;100791.81;;;18.22;100.00
15272;BME280;7737;51.578;7.268;2022-08-19T05:46:51;100793.53;;;18.23;100.00
15272;BME280;7737;51.578;7.268;2022-08-19T05:49:20;100795.97;;;18.04;100.00
15272;BME280;7737;51.578;7.268;2022-08-19T05:51:48;100797.94;;;18.13;100.00
15272;BME280;7737;51.578;7.268;2022-08-19T05:54:17;100800.72;;;18.12;100.00
15272;BME280;7737;51.578;7.268;2022-08-19T05:56:44;100797.66;;;18.16;100.00
15272;BME280;7737;51.578;7.268;2022-08-19T05:59:14;100807.13;;;18.55;100.00
15272;BME280;7737;51.578;7.268;2022-08-19T06:01:43;100790.56;;;18.71;100.00
15272;BME280;7737;51.578;7.268;2022-08-19T06:04:11;100793.72;;;18.87;100.00
15272;BME280;7737;51.578;7.268;2022-08-19T06:06:39;100790.13;;;18.98;100.00
15272;BME280;7737;51.578;7.268;2022-08-19T06:09:07;100787.41;;;19.09;100.00
15272;BME280;7737;51.578;7.268;2022-08-19T06:11:39;100788.41;;;19.28;100.00
15272;BME280;7737;51.578;7.268;2022-08-19T06:14:08;100785.19;;;19.34;100.00
15272;BME280;7737;51.578;7.268;2022-08-19T06:16:36;100782.41;;;19.25;100.00
15272;BME280;7737;51.578;7.268;2022-08-19T06:19:06;100775.75;;;19.40;100.00
15272;BME280;7737;51.578;7.268;2022-08-19T06:21:35;100787.41;;;19.40;100.00
15272;BME280;7737;51.578;7.268;2022-08-19T06:24:04;100790.00;;;19.52;100.00
15272;BME280;7737;51.578;7.268;2022-08-19T06:26:31;100783.69;;;19.62;100.00
15272;BME280;7737;51.578;7.268;2022-08-19T06:29:01;100784.09;;;19.78;100.00
15272;BME280;7737;51.578;7.268;2022-08-19T06:31:28;100785.28;;;19.85;100.00
15272;BME280;7737;51.578;7.268;2022-08-19T06:33:59;100790.56;;;19.96;100.00
15272;BME280;7737;51.578;7.268;2022-08-19T06:36:30;100789.41;;;19.89;100.00
15272;BME280;7737;51.578;7.268;2022-08-19T06:38:59;100784.53;;;19.83;100.00
15272;BME280;7737;51.578;7.268;2022-08-19T06:41:26;100779.94;;;19.95;100.00
15272;BME280;7737;51.578;7.268;2022-08-19T06:43:54;100770.09;;;19.94;100.00
15272;BME280;7737;51.578;7.268;2022-08-19T06:46:22;100772.50;;;20.18;100.00
15272;BME280;7737;51.578;7.268;2022-08-19T06:48:49;100769.72;;;20.29;100.00
15272;BME280;7737;51.578;7.268;2022-08-19T06:51:19;100769.09;;;20.46;100.00
15272;BME280;7737;51.578;7.268;2022-08-19T06:53:45;100771.78;;;20.46;100.00
15272;BME280;7737;51.578;7.268;2022-08-19T06:56:13;100770.69;;;20.58;100.00
15272;BME280;7737;51.578;7.268;2022-08-19T06:58:40;100773.81;;;20.63;100.00
15272;BME280;7737;51.578;7.268;2022-08-19T07:01:07;100772.94;;;20.53;100.00
15272;BME280;7737;51.578;7.268;2022-08-19T07:03:37;100775.00;;;20.70;100.00
15272;BME280;7737;51.578;7.268;2022-08-19T07:06:05;100769.28;;;20.73;100.00
15272;BME280;7737;51.578;7.268;2022-08-19T07:08:33;100764.34;;;20.88;100.00
15272;BME280;7737;51.578;7.268;2022-08-19T07:11:02;100766.44;;;20.84;100.00
15272;BME280;7737;51.578;7.268;2022-08-19T07:13:28;100765.91;;;21.00;100.00
15272;BME280;7737;51.578;7.268;2022-08-19T07:15:57;100771.47;;;21.08;100.00
15272;BME280;7737;51.578;7.268;2022-08-19T07:18:24;100775.75;;;21.10;100.00
15272;BME280;7737;51.578;7.268;2022-08-19T07:21:02;100772.78;;;21.23;100.00
15272;BME280;7737;51.578;7.268;2022-08-19T07:23:29;100767.38;;;21.23;100.00
15272;BME280;7737;51.578;7.268;2022-08-19T07:25:55;100771.22;;;21.20;100.00
15272;BME280;7737;51.578;7.268;2022-08-19T07:28:22;100775.06;;;21.18;100.00
15272;BME280;7737;51.578;7.268;2022-08-19T07:30:50;100775.34;;;21.24;100.00
15272;BME280;7737;51.578;7.268;2022-08-19T07:33:17;100773.75;;;21.32;100.00
15272;BME280;7737;51.578;7.268;2022-08-19T07:35:43;100783.28;;;21.26;100.00
15272;BME280;7737;51.578;7.268;2022-08-19T07:38:11;100790.84;;;21.22;100.00
15272;BME280;7737;51.578;7.268;2022-08-19T07:40:38;100790.41;;;21.37;100.00
15272;BME280;7737;51.578;7.268;2022-08-19T07:43:06;100788.88;;;21.24;100.00
15272;BME280;7737;51.578;7.268;2022-08-19T07:45:33;100804.38;;;21.22;100.00
15272;BME280;7737;51.578;7.268;2022-08-19T07:47:59;100798.69;;;21.35;100.00
15272;BME280;7737;51.578;7.268;2022-08-19T07:50:26;100801.38;;;21.45;100.00
15272;BME280;7737;51.578;7.268;2022-08-19T07:52:53;100802.09;;;21.47;100.00
15272;BME280;7737;51.578;7.268;2022-08-19T07:55:23;100789.56;;;21.46;100.00
15272;BME280;7737;51.578;7.268;2022-08-19T07:57:50;100791.84;;;21.60;100.00
15272;BME280;7737;51.578;7.268;2022-08-19T08:00:18;100803.63;;;21.68;100.00
15272;BME280;7737;51.578;7.268;2022-08-19T08:02:45;100803.03;;;21.84;100.00
15272;BME280;7737;51.578;7.268;2022-08-19T08:05:11;100806.31;;;21.97;100.00
15272;BME280;7737;51.578;7.268;2022-08-19T08:07:55;100820.81;;;22.15;100.00
15272;BME280;7737;51.578;7.268;2022-08-19T08:10:41;100816.38;;;22.14;100.00
15272;BME280;7737;51.578;7.268;2022-08-19T08:13:08;100814.22;;;22.18;100.00
15272;BME280;7737;51.578;7.268;2022-08-19T08:15:35;100818.09;;;22.42;100.00
15272;BME280;7737;51.578;7.268;2022-08-19T08:18:03;100818.84;;;22.35;100.00
15272;BME280;7737;51.578;7.268;2022-08-19T08:20:30;100821.53;;;22.44;100.00
15272;BME280;7737;51.578;7.268;2022-08-19T08:22:56;100818.84;;;22.72;100.00
15272;BME280;7737;51.578;7.268;2022-08-19T08:25:43;100823.19;;;22.65;100.00
15272;BME280;7737;51.578;7.268;2022-08-19T08:28:10;100824.44;;;22.70;100.00
15272;BME280;7737;51.578;7.268;2022-08-19T08:30:37;100814.97;;;23.01;100.00
15272;BME280;7737;51.578;7.268;2022-08-19T08:33:06;100822.03;;;23.12;100.00
15272;BME280;7737;51.578;7.268;2022-08-19T08:35:33;100818.31;;;23.13;100.00
15272;BME280;7737;51.578;7.268;2022-08-19T08:37:59;100810.88;;;23.15;100.00
15272;BME280;7737;51.578;7.268;2022-08-19T08:40:30;100816.94;;;23.44;100.00
15272;BME280;7737;51.578;7.268;2022-08-19T08:43:05;100803.44;;;23.52;100.00
15272;BME280;7737;51.578;7.268;2022-08-19T08:45:34;100810.56;;;23.97;100.00
15272;BME280;7737;51.578;7.268;2022-08-19T08:48:10;100804.88;;;23.82;100.00
15272;BME280;7737;51.578;7.268;2022-08-19T08:50:41;100807.97;;;23.70;100.00
15272;BME280;7737;51.578;7.268;2022-08-19T08:53:10;100799.72;;;23.53;100.00
15272;BME280;7737;51.578;7.268;2022-08-19T08:55:40;100801.66;;;23.87;100.00
15272;BME280;7737;51.578;7.268;2022-08-19T08:58:12;100797.84;;;23.97;100.00
15272;BME280;7737;51.578;7.268;2022-08-19T09:00:45;100786.50;;;24.02;100.00
15272;BME280;7737;51.578;7.268;2022-08-19T09:03:17;100792.38;;;24.15;100.00
15272;BME280;7737;51.578;7.268;2022-08-19T09:05:57;100793.59;;;24.20;100.00
15272;BME280;7737;51.578;7.268;2022-08-19T09:08:35;100777.00;;;24.06;100.00
15272;BME280;7737;51.578;7.268;2022-08-19T09:11:08;100773.47;;;24.39;100.00
15272;BME280;7737;51.578;7.268;2022-08-19T09:13:42;100775.38;;;24.80;100.00
15272;BME280;7737;51.578;7.268;2022-08-19T09:16:15;100770.00;;;24.63;100.00
15272;BME280;7737;51.578;7.268;2022-08-19T09:18:44;100775.94;;;24.58;100.00
15272;BME280;7737;51.578;7.268;2022-08-19T09:21:12;100770.31;;;24.60;100.00
15272;BME280;7737;51.578;7.268;2022-08-19T09:23:40;100776.22;;;24.97;100.00
15272;BME280;7737;51.578;7.268;2022-08-19T09:26:08;100760.28;;;25.26;100.00
15272;BME280;7737;51.578;7.268;2022-08-19T09:28:40;100745.81;;;25.34;100.00
15272;BME280;7737;51.578;7.268;2022-08-19T09:31:09;100754.53;;;25.70;100.00
15272;BME280;7737;51.578;7.268;2022-08-19T09:33:36;100753.69;;;25.61;100.00
15272;BME280;7737;51.578;7.268;2022-08-19T09:36:05;100754.50;;;25.46;100.00
15272;BME280;7737;51.578;7.268;2022-08-19T09:38:32;100756.38;;;25.77;100.00
15272;BME280;7737;51.578;7.268;2022-08-19T09:41:02;100759.47;;;25.50;100.00
15272;BME280;7737;51.578;7.268;2022-08-19T09:43:30;100763.69;;;25.04;100.00
15272;BME280;7737;51.578;7.268;2022-08-19T09:45:58;100766.53;;;24.95;100.00
15272;BME280;7737;51.578;7.268;2022-08-19T09:48:25;100764.38;;;25.22;100.00
15272;BME280;7737;51.578;7.268;2022-08-19T09:50:52;100760.16;;;25.52;100.00
15272;BME280;7737;51.578;7.268;2022-08-19T09:53:20;100762.53;;;25.31;100.00
15272;BME280;7737;51.578;7.268;2022-08-19T09:55:47;100757.94;;;25.48;100.00
15272;BME280;7737;51.578;7.268;2022-08-19T09:58:14;100750.25;;;25.83;100.00
15272;BME280;7737;51.578;7.268;2022-08-19T10:00:40;100741.28;;;26.22;99.42
15272;BME280;7737;51.578;7.268;2022-08-19T10:03:08;100740.31;;;25.98;98.31
15272;BME280;7737;51.578;7.268;2022-08-19T10:05:36;100739.44;;;26.14;97.83
15272;BME280;7737;51.578;7.268;2022-08-19T10:08:17;100726.53;;;26.47;95.72
15272;BME280;7737;51.578;7.268;2022-08-19T10:10:44;100743.66;;;26.25;97.71
15272;BME280;7737;51.578;7.268;2022-08-19T10:13:11;100745.88;;;26.21;98.02
15272;BME280;7737;51.578;7.268;2022-08-19T10:15:37;100740.69;;;25.87;98.24
15272;BME280;7737;51.578;7.268;2022-08-19T10:18:06;100756.41;;;25.53;99.62
15272;BME280;7737;51.578;7.268;2022-08-19T10:20:34;100747.56;;;25.51;97.07
15272;BME280;7737;51.578;7.268;2022-08-19T10:23:02;100738.16;;;25.13;95.03
15272;BME280;7737;51.578;7.268;2022-08-19T10:25:29;100752.34;;;25.57;97.98
15272;BME280;7737;51.578;7.268;2022-08-19T10:27:56;100741.34;;;25.89;96.15
15272;BME280;7737;51.578;7.268;2022-08-19T10:30:22;100747.94;;;26.11;98.09
15272;BME280;7737;51.578;7.268;2022-08-19T10:32:49;100723.03;;;26.30;93.59
15272;BME280;7737;51.578;7.268;2022-08-19T10:35:16;100712.81;;;26.63;91.51
15272;BME280;7737;51.578;7.268;2022-08-19T10:37:44;100725.25;;;26.96;92.04
15272;BME280;7737;51.578;7.268;2022-08-19T10:40:11;100725.88;;;26.45;93.73
15272;BME280;7737;51.578;7.268;2022-08-19T10:42:38;100717.22;;;25.86;91.90
15272;BME280;7737;51.578;7.268;2022-08-19T10:45:05;100721.81;;;25.86;91.00
15272;BME280;7737;51.578;7.268;2022-08-19T10:47:32;100730.34;;;25.67;91.99
15272;BME280;7737;51.578;7.268;2022-08-19T10:49:59;100730.00;;;25.46;90.74
15272;BME280;7737;51.578;7.268;2022-08-19T10:52:46;100724.91;;;26.30;92.68
15272;BME280;7737;51.578;7.268;2022-08-19T10:55:13;100703.06;;;26.38;86.79
15272;BME280;7737;51.578;7.268;2022-08-19T10:57:57;100687.16;;;26.80;85.05
15272;BME280;7737;51.578;7.268;2022-08-19T11:00:24;100701.63;;;26.19;85.26
15272;BME280;7737;51.578;7.268;2022-08-19T11:02:51;100701.84;;;25.93;85.13
15272;BME280;7737;51.578;7.268;2022-08-19T11:05:18;100688.22;;;26.40;84.37
15272;BME280;7737;51.578;7.268;2022-08-19T11:07:48;100672.72;;;26.94;81.19
15272;BME280;7737;51.578;7.268;2022-08-19T11:10:15;100672.84;;;27.01;80.82
15272;BME280;7737;51.578;7.268;2022-08-19T11:12:44;100687.22;;;26.64;81.58
15272;BME280;7737;51.578;7.268;2022-08-19T11:15:11;100681.44;;;26.36;79.49
15272;BME280;7737;51.578;7.268;2022-08-19T11:17:38;100692.31;;;25.89;79.58
15272;BME280;7737;51.578;7.268;2022-08-19T11:20:09;100685.63;;;26.47;80.55
15272;BME280;7737;51.578;7.268;2022-08-19T11:22:36;100665.34;;;27.03;77.57
15272;BME280;7737;51.578;7.268;2022-08-19T11:25:05;100643.72;;;27.16;73.78
15272;BME280;7737;51.578;7.268;2022-08-19T11:27:31;100644.84;;;27.44;74.25
15272;BME280;7737;51.578;7.268;2022-08-19T11:29:58;100619.50;;;27.65;72.03
15272;BME280;7737;51.578;7.268;2022-08-19T11:32:26;100645.00;;;28.01;74.46
15272;BME280;7737;51.578;7.268;2022-08-19T11:34:52;100643.13;;;27.72;73.66
15272;BME280;7737;51.578;7.268;2022-08-19T11:37:19;100663.28;;;27.19;76.27
15272;BME280;7737;51.578;7.268;2022-08-19T11:39:46;100669.88;;;27.10;77.55
15272;BME280;7737;51.578;7.268;2022-08-19T11:42:14;100659.16;;;27.61;75.70
15272;BME280;7737;51.578;7.268;2022-08-19T11:44:58;100644.56;;;27.83;73.42
15272;BME280;7737;51.578;7.268;2022-08-19T11:47:25;100637.22;;;27.84;71.73
15272;BME280;7737;51.578;7.268;2022-08-19T11:49:51;100633.72;;;28.04;71.71
15272;BME280;7737;51.578;7.268;2022-08-19T11:52:18;100614.84;;;28.09;68.78
15272;BME280;7737;51.578;7.268;2022-08-19T11:54:45;100608.94;;;27.62;68.16
15272;BME280;7737;51.578;7.268;2022-08-19T11:57:11;100608.28;;;28.39;69.36
15272;BME280;7737;51.578;7.268;2022-08-19T11:59:47;100607.00;;;28.57;69.94
15272;BME280;7737;51.578;7.268;2022-08-19T12:02:14;100598.47;;;28.09;67.60
15272;BME280;7737;51.578;7.268;2022-08-19T12:04:41;100608.16;;;27.97;68.25
15272;BME280;7737;51.578;7.268;2022-08-19T12:07:07;100619.16;;;27.31;69.59
15272;BME280;7737;51.578;7.268;2022-08-19T12:09:34;100643.88;;;27.52;72.86
15272;BME280;7737;51.578;7.268;2022-08-19T12:12:00;100635.59;;;27.60;70.62
15272;BME280;7737;51.578;7.268;2022-08-19T12:14:28;100632.13;;;27.95;71.17
15272;BME280;7737;51.578;7.268;2022-08-19T12:16:57;100616.56;;;27.52;68.54
15272;BME280;7737;51.578;7.268;2022-08-19T12:19:24;100587.50;;;28.45;66.97
15272;BME280;7737;51.578;7.268;2022-08-19T12:21:51;100588.22;;;28.32;67.08
15272;BME280;7737;51.578;7.268;2022-08-19T12:24:18;100601.41;;;27.93;68.46
15272;BME280;7737;51.578;7.268;2022-08-19T12:26:48;100607.06;;;27.77;68.59
15272;BME280;7737;51.578;7.268;2022-08-19T12:29:15;100612.31;;;28.44;70.58
15272;BME280;7737;51.578;7.268;2022-08-19T12:31:42;100583.06;;;28.23;66.58
15272;BME280;7737;51.578;7.268;2022-08-19T12:34:10;100577.44;;;28.46;66.04
15272;BME280;7737;51.578;7.268;2022-08-19T12:36:37;100577.78;;;29.06;65.22
15272;BME280;7737;51.578;7.268;2022-08-19T12:39:04;100563.03;;;29.07;62.32
15272;BME280;7737;51.578;7.268;2022-08-19T12:41:33;100544.47;;;29.03;60.16
15272;BME280;7737;51.578;7.268;2022-08-19T12:44:00;100532.44;;;29.66;59.16
15272;BME280;7737;51.578;7.268;2022-08-19T12:46:26;100501.88;;;29.62;56.14
15272;BME280;7737;51.578;7.268;2022-08-19T12:48:53;100497.75;;;29.79;54.81
15272;BME280;7737;51.578;7.268;2022-08-19T12:51:21;100517.59;;;28.85;56.64
15272;BME280;7737;51.578;7.268;2022-08-19T12:53:48;100540.56;;;29.12;59.11
15272;BME280;7737;51.578;7.268;2022-08-19T12:56:15;100544.72;;;29.70;59.27
15272;BME280;7737;51.578;7.268;2022-08-19T12:58:43;100533.22;;;29.19;57.43